createdAt,value
2022-08-11T00:00:53.296Z,0.00
2022-08-11T00:01:53.281Z,0.00
2022-08-11T00:02:53.291Z,0.00
2022-08-11T00:03:53.262Z,0.00
2022-08-11T00:04:53.268Z,0.00
2022-08-11T00:05:53.267Z,0.00
2022-08-11T00:06:53.237Z,0.00
2022-08-11T00:07:53.223Z,0.00
2022-08-11T00:08:53.266Z,0.00
2022-08-11T00:09:53.247Z,0.00
2022-08-11T00:10:53.199Z,0.00
2022-08-11T00:11:53.190Z,0.00
2022-08-11T00:12:54.178Z,0.00
2022-08-11T00:13:53.169Z,0.00
2022-08-11T00:14:53.176Z,0.00
2022-08-11T00:15:53.148Z,0.00
2022-08-11T00:16:53.137Z,0.00
2022-08-11T00:17:53.130Z,0.00
2022-08-11T00:18:53.123Z,0.00
2022-08-11T00:20:12.402Z,0.00
2022-08-11T00:20:54.104Z,0.00
2022-08-11T00:22:04.912Z,0.00
2022-08-11T00:22:54.086Z,0.00
2022-08-11T00:23:53.073Z,0.00
2022-08-11T00:24:57.225Z,0.00
2022-08-11T00:25:54.051Z,0.00
2022-08-11T00:26:53.043Z,0.00
2022-08-11T00:27:53.031Z,0.00
2022-08-11T00:28:53.020Z,0.00
2022-08-11T00:29:53.028Z,0.00
2022-08-11T00:30:53.010Z,0.00
2022-08-11T00:31:52.991Z,0.00
2022-08-11T00:32:52.991Z,0.00
2022-08-11T00:33:52.973Z,0.00
2022-08-11T00:34:52.984Z,0.00
2022-08-11T00:35:57.669Z,0.00
2022-08-11T00:36:52.949Z,0.00
2022-08-11T00:37:52.935Z,0.00
2022-08-11T00:38:52.947Z,0.00
2022-08-11T00:39:53.034Z,0.00
2022-08-11T00:40:52.927Z,0.00
2022-08-11T00:41:56.776Z,0.00
2022-08-11T00:42:52.887Z,0.00
2022-08-11T00:43:52.879Z,0.00
2022-08-11T00:44:52.867Z,0.00
2022-08-11T00:45:52.901Z,0.00
2022-08-11T00:46:52.857Z,0.00
2022-08-11T00:47:52.842Z,0.00
2022-08-11T00:48:52.835Z,0.00
2022-08-11T00:49:52.822Z,0.00
2022-08-11T00:50:52.831Z,0.00
2022-08-11T00:52:02.029Z,0.00
2022-08-11T00:52:53.797Z,0.00
2022-08-11T00:53:52.785Z,0.00
2022-08-11T00:54:52.775Z,0.00
2022-08-11T00:55:55.469Z,0.00
2022-08-11T00:56:52.761Z,0.00
2022-08-11T00:57:52.745Z,0.00
2022-08-11T00:58:52.741Z,0.00
2022-08-11T00:59:52.725Z,0.00
2022-08-11T01:00:52.759Z,0.00
2022-08-11T01:01:52.702Z,0.00
2022-08-11T01:02:52.701Z,0.00
2022-08-11T01:03:52.688Z,0.00
2022-08-11T01:04:55.745Z,0.00
2022-08-11T01:05:52.681Z,0.00
2022-08-11T01:06:52.662Z,0.00
2022-08-11T01:08:02.388Z,0.00
2022-08-11T01:08:53.689Z,0.00
2022-08-11T01:09:52.628Z,0.00
2022-08-11T01:10:52.688Z,0.00
2022-08-11T01:11:55.727Z,0.00
2022-08-11T01:12:52.603Z,0.00
2022-08-11T01:13:52.594Z,0.00
2022-08-11T01:14:52.588Z,0.00
2022-08-11T01:15:57.019Z,0.00
2022-08-11T01:16:52.632Z,0.00
2022-08-11T01:17:52.555Z,0.00
2022-08-11T01:18:52.544Z,0.00
2022-08-11T01:20:44.724Z,0.00
2022-08-11T01:20:53.546Z,0.00
2022-08-11T01:21:52.522Z,0.00
2022-08-11T01:22:52.566Z,0.00
2022-08-11T01:23:52.503Z,0.00
2022-08-11T01:24:52.485Z,0.00
2022-08-11T01:25:57.061Z,0.00
2022-08-11T01:26:53.470Z,0.00
2022-08-11T01:27:52.463Z,0.00
2022-08-11T01:28:52.539Z,0.00
2022-08-11T01:29:52.436Z,0.00
2022-08-11T01:30:54.293Z,0.00
2022-08-11T01:31:52.425Z,0.00
2022-08-11T01:32:52.410Z,0.00
2022-08-11T01:33:52.404Z,0.00
2022-08-11T01:34:52.387Z,0.00
2022-08-11T01:35:52.597Z,0.00
2022-08-11T01:36:53.585Z,0.00
2022-08-11T01:37:52.358Z,0.00
2022-08-11T01:38:52.346Z,0.00
2022-08-11T01:39:52.424Z,0.00
2022-08-11T01:40:52.346Z,0.00
2022-08-11T01:41:52.324Z,0.00
2022-08-11T01:42:52.312Z,0.00
2022-08-11T01:43:52.297Z,0.00
2022-08-11T01:44:52.294Z,0.00
2022-08-11T01:45:52.379Z,0.00
2022-08-11T01:46:52.444Z,0.00
2022-08-11T01:47:53.521Z,0.00
2022-08-11T01:48:52.252Z,0.00
2022-08-11T01:50:09.438Z,0.00
2022-08-11T01:50:53.248Z,0.00
2022-08-11T01:51:52.225Z,0.00
2022-08-11T01:52:52.386Z,0.00
2022-08-11T01:53:52.199Z,0.00
2022-08-11T01:54:52.191Z,0.00
2022-08-11T01:55:52.238Z,0.00
2022-08-11T01:56:52.167Z,0.00
2022-08-11T01:57:52.165Z,0.00
2022-08-11T01:58:52.156Z,0.00
2022-08-11T01:59:52.147Z,0.00
2022-08-11T02:00:52.192Z,0.00
2022-08-11T02:01:52.223Z,0.00
2022-08-11T02:02:52.113Z,0.00
2022-08-11T02:03:52.107Z,0.00
2022-08-11T02:04:52.094Z,0.00
2022-08-11T02:05:52.083Z,0.00
2022-08-11T02:06:52.090Z,0.00
2022-08-11T02:07:52.069Z,0.00
2022-08-11T02:08:52.054Z,0.00
2022-08-11T02:09:52.045Z,0.00
2022-08-11T02:10:52.035Z,0.00
2022-08-11T02:11:52.042Z,0.00
2022-08-11T02:12:52.412Z,0.00
2022-08-11T02:13:52.007Z,0.00
2022-08-11T02:15:04.779Z,0.00
2022-08-11T02:15:52.993Z,0.00
2022-08-11T02:16:51.999Z,0.00
2022-08-11T02:17:54.703Z,0.00
2022-08-11T02:18:51.963Z,0.00
2022-08-11T02:19:51.958Z,0.00
2022-08-11T02:20:51.951Z,0.00
2022-08-11T02:21:51.946Z,0.00
2022-08-11T02:22:51.944Z,0.00
2022-08-11T02:24:07.106Z,0.00
2022-08-11T02:24:52.900Z,0.00
2022-08-11T02:25:51.980Z,0.00
2022-08-11T02:26:51.901Z,0.00
2022-08-11T02:27:51.878Z,0.00
2022-08-11T02:28:51.862Z,0.00
2022-08-11T02:29:51.862Z,0.00
2022-08-11T02:30:51.862Z,0.00
2022-08-11T02:32:24.373Z,0.00
2022-08-11T02:32:53.030Z,0.00
2022-08-11T02:33:51.821Z,0.00
2022-08-11T02:34:59.411Z,0.00
2022-08-11T02:35:51.806Z,0.00
2022-08-11T02:36:52.045Z,0.00
2022-08-11T02:37:51.823Z,0.00
2022-08-11T02:38:52.007Z,0.00
2022-08-11T02:39:51.814Z,0.00
2022-08-11T02:40:51.756Z,0.00
2022-08-11T02:41:51.762Z,0.00
2022-08-11T02:42:51.731Z,0.00
2022-08-11T02:43:51.856Z,0.00
2022-08-11T02:44:51.711Z,0.00
2022-08-11T02:45:51.723Z,0.00
2022-08-11T02:46:51.704Z,0.00
2022-08-11T02:47:51.687Z,0.00
2022-08-11T02:48:51.679Z,0.00
2022-08-11T02:50:02.721Z,0.00
2022-08-11T02:50:52.653Z,0.00
2022-08-11T02:51:51.702Z,0.00
2022-08-11T02:52:51.637Z,0.00
2022-08-11T02:53:57.995Z,0.00
2022-08-11T02:54:52.618Z,0.00
2022-08-11T02:55:57.983Z,0.00
2022-08-11T02:56:52.636Z,0.00
2022-08-11T02:57:51.594Z,0.00
2022-08-11T02:58:51.582Z,0.00
2022-08-11T02:59:51.593Z,0.00
2022-08-11T03:00:51.590Z,0.00
2022-08-11T03:01:51.623Z,0.00
2022-08-11T03:02:51.578Z,0.00
2022-08-11T03:03:51.545Z,0.00
2022-08-11T03:04:51.533Z,0.00
2022-08-11T03:05:52.908Z,0.00
2022-08-11T03:06:51.522Z,0.00
2022-08-11T03:07:51.509Z,0.00
2022-08-11T03:08:51.500Z,0.00
2022-08-11T03:09:51.485Z,0.00
2022-08-11T03:10:51.465Z,0.00
2022-08-11T03:11:51.479Z,0.00
2022-08-11T03:12:53.666Z,0.00
2022-08-11T03:13:51.451Z,0.00
2022-08-11T03:14:51.426Z,0.00
2022-08-11T03:15:51.435Z,0.00
2022-08-11T03:16:51.475Z,0.00
2022-08-11T03:17:51.400Z,0.00
2022-08-11T03:18:51.399Z,0.00
2022-08-11T03:19:51.582Z,0.00
2022-08-11T03:20:51.372Z,0.00
2022-08-11T03:22:03.060Z,0.00
2022-08-11T03:22:52.353Z,0.00
2022-08-11T03:23:51.347Z,0.00
2022-08-11T03:24:51.337Z,0.00
2022-08-11T03:25:51.324Z,0.00
2022-08-11T03:26:51.325Z,0.00
2022-08-11T03:27:51.303Z,0.00
2022-08-11T03:28:51.292Z,0.00
2022-08-11T03:29:51.284Z,0.00
2022-08-11T03:30:51.282Z,0.00
2022-08-11T03:31:51.285Z,0.00
2022-08-11T03:32:51.252Z,0.00
2022-08-11T03:33:51.247Z,0.00
2022-08-11T03:34:51.233Z,0.00
2022-08-11T03:35:51.227Z,0.00
2022-08-11T03:37:15.067Z,0.00
2022-08-11T03:37:52.482Z,0.00
2022-08-11T03:38:51.271Z,0.00
2022-08-11T03:39:56.160Z,0.00
2022-08-11T03:40:52.178Z,0.00
2022-08-11T03:42:04.489Z,0.00
2022-08-11T03:42:52.157Z,0.00
2022-08-11T03:43:58.415Z,0.00
2022-08-11T03:44:51.354Z,0.00
2022-08-11T03:45:51.134Z,0.00
2022-08-11T03:46:51.139Z,0.00
2022-08-11T03:47:54.958Z,0.00
2022-08-11T03:48:51.115Z,0.00
2022-08-11T03:49:51.095Z,0.00
2022-08-11T03:50:54.958Z,0.00
2022-08-11T03:51:52.187Z,0.00
2022-08-11T03:52:51.247Z,0.00
2022-08-11T03:53:51.052Z,0.00
2022-08-11T03:54:51.046Z,0.00
2022-08-11T03:55:51.039Z,5.62
2022-08-11T03:56:51.034Z,5.62
2022-08-11T03:57:51.017Z,5.62
2022-08-11T03:58:51.113Z,5.62
2022-08-11T03:59:50.996Z,5.62
2022-08-11T04:00:50.987Z,5.62
2022-08-11T04:01:51.039Z,5.62
2022-08-11T04:02:50.969Z,5.62
2022-08-11T04:03:50.961Z,11.25
2022-08-11T04:04:51.641Z,11.25
2022-08-11T04:05:51.021Z,11.25
2022-08-11T04:06:50.940Z,11.25
2022-08-11T04:07:50.920Z,11.25
2022-08-11T04:08:50.910Z,16.88
2022-08-11T04:09:50.899Z,16.88
2022-08-11T04:10:50.890Z,16.88
2022-08-11T04:11:50.896Z,16.88
2022-08-11T04:12:51.018Z,16.88
2022-08-11T04:13:50.867Z,22.50
2022-08-11T04:14:50.850Z,22.50
2022-08-11T04:15:51.059Z,22.50
2022-08-11T04:16:50.836Z,22.50
2022-08-11T04:17:50.837Z,28.12
2022-08-11T04:18:50.816Z,28.12
2022-08-11T04:19:50.803Z,28.12
2022-08-11T04:20:50.792Z,28.12
2022-08-11T04:21:50.781Z,33.75
2022-08-11T04:22:50.781Z,33.75
2022-08-11T04:24:35.010Z,33.75
2022-08-11T04:24:51.776Z,33.75
2022-08-11T04:25:55.854Z,39.38
2022-08-11T04:26:51.729Z,39.38
2022-08-11T04:27:50.861Z,39.38
2022-08-11T04:28:50.897Z,39.38
2022-08-11T04:30:02.101Z,45.00
2022-08-11T04:30:51.896Z,45.00
2022-08-11T04:31:52.738Z,45.00
2022-08-11T04:32:50.680Z,45.00
2022-08-11T04:33:52.064Z,50.62
2022-08-11T04:34:50.658Z,50.62
2022-08-11T04:35:51.418Z,50.62
2022-08-11T04:36:50.635Z,56.25
2022-08-11T04:37:51.351Z,56.25
2022-08-11T04:38:50.623Z,56.25
2022-08-11T04:39:50.705Z,56.25
2022-08-11T04:40:50.600Z,61.88
2022-08-11T04:41:50.594Z,61.88
2022-08-11T04:42:50.596Z,61.88
2022-08-11T04:44:02.887Z,61.88
2022-08-11T04:44:51.570Z,67.50
2022-08-11T04:45:50.551Z,67.50
2022-08-11T04:46:50.537Z,67.50
2022-08-11T04:48:03.536Z,67.50
2022-08-11T04:48:51.523Z,67.50
2022-08-11T04:49:50.530Z,73.12
2022-08-11T04:51:08.591Z,73.12
2022-08-11T04:51:51.552Z,73.12
2022-08-11T04:52:50.571Z,73.12
2022-08-11T04:53:52.265Z,78.75
2022-08-11T04:54:50.809Z,78.75
2022-08-11T04:55:50.465Z,78.75
2022-08-11T04:56:50.597Z,78.75
2022-08-11T04:57:50.450Z,84.38
2022-08-11T04:58:50.423Z,84.38
2022-08-11T04:59:50.423Z,84.38
2022-08-11T05:00:50.425Z,84.38
2022-08-11T05:01:50.464Z,84.38
2022-08-11T05:02:50.430Z,90.00
2022-08-11T05:03:50.399Z,90.00
2022-08-11T05:04:50.368Z,90.00
2022-08-11T05:05:56.496Z,90.00
2022-08-11T05:06:51.353Z,95.62
2022-08-11T05:07:50.374Z,95.62
2022-08-11T05:08:50.333Z,95.62
2022-08-11T05:09:50.328Z,95.62
2022-08-11T05:10:50.311Z,95.62
2022-08-11T05:11:50.321Z,101.25
2022-08-11T05:12:50.309Z,101.25
2022-08-11T05:13:50.287Z,101.25
2022-08-11T05:14:50.274Z,101.25
2022-08-11T05:15:51.597Z,101.25
2022-08-11T05:16:50.265Z,106.88
2022-08-11T05:17:50.251Z,106.88
2022-08-11T05:18:50.238Z,106.88
2022-08-11T05:19:50.228Z,106.88
2022-08-11T05:20:50.218Z,106.88
2022-08-11T05:21:50.226Z,106.88
2022-08-11T05:22:50.197Z,112.50
2022-08-11T05:23:50.196Z,112.50
2022-08-11T05:24:50.179Z,112.50
2022-08-11T05:26:43.342Z,112.50
2022-08-11T05:26:51.176Z,112.50
2022-08-11T05:27:50.152Z,118.12
2022-08-11T05:28:50.137Z,118.12
2022-08-11T05:29:50.132Z,118.12
2022-08-11T05:30:50.116Z,118.12
2022-08-11T05:31:50.132Z,118.12
2022-08-11T05:32:50.093Z,123.75
2022-08-11T05:33:50.090Z,123.75
2022-08-11T05:34:50.081Z,123.75
2022-08-11T05:36:00.825Z,123.75
2022-08-11T05:36:51.083Z,123.75
2022-08-11T05:37:50.046Z,123.75
2022-08-11T05:38:50.047Z,129.38
2022-08-11T05:39:50.100Z,129.38
2022-08-11T05:40:51.126Z,129.38
2022-08-11T05:41:50.034Z,129.38
2022-08-11T05:42:50.005Z,129.38
2022-08-11T05:44:20.605Z,129.38
2022-08-11T05:44:50.993Z,135.00
2022-08-11T05:46:02.772Z,135.00
2022-08-11T05:46:50.980Z,135.00
2022-08-11T05:47:49.958Z,140.62
2022-08-11T05:48:49.974Z,140.62
2022-08-11T05:49:49.939Z,146.25
2022-08-11T05:50:49.928Z,146.25
2022-08-11T05:51:55.111Z,146.25
2022-08-11T05:52:55.453Z,146.25
2022-08-11T05:53:50.058Z,151.88
2022-08-11T05:54:49.889Z,151.88
2022-08-11T05:56:01.649Z,151.88
2022-08-11T05:56:50.887Z,151.88
2022-08-11T05:57:51.900Z,151.88
2022-08-11T05:58:49.845Z,157.50
2022-08-11T05:59:49.843Z,157.50
2022-08-11T06:00:49.843Z,157.50
2022-08-11T06:01:49.882Z,157.50
2022-08-11T06:02:49.824Z,157.50
2022-08-11T06:03:58.665Z,163.12
2022-08-11T06:04:50.812Z,163.12
2022-08-11T06:05:50.823Z,163.12
2022-08-11T06:06:49.770Z,163.12
2022-08-11T06:07:50.305Z,168.75
2022-08-11T06:08:49.758Z,168.75
2022-08-11T06:09:49.743Z,168.75
2022-08-11T06:10:49.739Z,168.75
2022-08-11T06:11:49.727Z,174.38
2022-08-11T06:12:49.732Z,168.75
2022-08-11T06:13:49.715Z,168.75
2022-08-11T06:14:49.710Z,168.75
2022-08-11T06:15:49.693Z,168.75
2022-08-11T06:16:49.879Z,174.38
2022-08-11T06:17:49.682Z,174.38
2022-08-11T06:18:49.670Z,174.38
2022-08-11T06:19:49.657Z,174.38
2022-08-11T06:20:49.658Z,180.00
2022-08-11T06:21:49.636Z,180.00
2022-08-11T06:22:52.933Z,180.00
2022-08-11T06:23:49.608Z,180.00
2022-08-11T06:24:49.610Z,180.00
2022-08-11T06:25:49.599Z,180.00
2022-08-11T06:27:11.331Z,185.62
2022-08-11T06:27:50.588Z,185.62
2022-08-11T06:28:49.656Z,185.62
2022-08-11T06:29:55.134Z,185.62
2022-08-11T06:30:50.550Z,185.62
2022-08-11T06:31:49.534Z,191.25
2022-08-11T06:32:49.534Z,191.25
2022-08-11T06:33:49.511Z,191.25
2022-08-11T06:34:49.508Z,191.25
2022-08-11T06:35:49.499Z,191.25
2022-08-11T06:36:49.486Z,191.25
2022-08-11T06:37:49.506Z,196.88
2022-08-11T06:38:49.472Z,196.88
2022-08-11T06:39:49.505Z,196.88
2022-08-11T06:40:49.445Z,196.88
2022-08-11T06:41:49.436Z,196.88
2022-08-11T06:42:49.436Z,202.50
2022-08-11T06:43:55.941Z,202.50
2022-08-11T06:44:50.403Z,202.50
2022-08-11T06:45:49.392Z,202.50
2022-08-11T06:46:49.386Z,202.50
2022-08-11T06:47:49.404Z,208.12
2022-08-11T06:48:49.380Z,208.12
2022-08-11T06:49:49.361Z,208.12
2022-08-11T06:50:49.348Z,208.12
2022-08-11T06:51:49.335Z,213.75
2022-08-11T06:52:49.626Z,213.75
2022-08-11T06:53:49.496Z,213.75
2022-08-11T06:54:50.307Z,213.75
2022-08-11T06:55:57.917Z,219.38
2022-08-11T06:57:01.723Z,219.38
2022-08-11T06:57:50.278Z,219.38
2022-08-11T06:58:49.288Z,219.38
2022-08-11T06:59:49.253Z,225.00
2022-08-11T07:00:49.250Z,225.00
2022-08-11T07:01:49.583Z,225.00
2022-08-11T07:02:49.233Z,230.62
2022-08-11T07:03:49.237Z,230.62
2022-08-11T07:04:49.209Z,230.62
2022-08-11T07:05:49.202Z,230.62
2022-08-11T07:06:50.386Z,230.62
2022-08-11T07:07:49.181Z,236.25
2022-08-11T07:08:49.192Z,236.25
2022-08-11T07:09:49.160Z,236.25
2022-08-11T07:10:49.154Z,236.25
2022-08-11T07:11:49.143Z,236.25
2022-08-11T07:12:49.132Z,241.88
2022-08-11T07:13:49.136Z,241.88
2022-08-11T07:14:49.113Z,241.88
2022-08-11T07:16:12.205Z,241.88
2022-08-11T07:16:50.094Z,247.50
2022-08-11T07:17:49.076Z,247.50
2022-08-11T07:18:49.085Z,247.50
2022-08-11T07:19:49.061Z,247.50
2022-08-11T07:20:49.052Z,247.50
2022-08-11T07:22:02.346Z,253.12
2022-08-11T07:22:50.040Z,253.12
2022-08-11T07:23:49.040Z,253.12
2022-08-11T07:25:01.388Z,253.12
2022-08-11T07:25:50.010Z,258.75
2022-08-11T07:26:49.001Z,258.75
2022-08-11T07:27:48.989Z,258.75
2022-08-11T07:28:48.990Z,258.75
2022-08-11T07:29:48.969Z,264.38
2022-08-11T07:30:51.859Z,264.38
2022-08-11T07:31:50.011Z,264.38
2022-08-11T07:32:48.939Z,270.00
2022-08-11T07:34:08.408Z,270.00
2022-08-11T07:34:49.927Z,270.00
2022-08-11T07:35:48.946Z,275.62
2022-08-11T07:36:48.897Z,275.62
2022-08-11T07:37:48.881Z,275.62
2022-08-11T07:38:49.058Z,281.25
2022-08-11T07:39:48.925Z,281.25
2022-08-11T07:40:48.864Z,281.25
2022-08-11T07:41:48.841Z,281.25
2022-08-11T07:42:48.841Z,286.88
2022-08-11T07:43:48.820Z,292.50
2022-08-11T07:44:48.830Z,298.12
2022-08-11T07:45:48.805Z,303.75
2022-08-11T07:46:48.792Z,303.75
2022-08-11T07:47:48.778Z,315.00
2022-08-11T07:48:48.787Z,326.25
2022-08-11T07:49:48.779Z,343.12
2022-08-11T07:50:51.811Z,416.25
2022-08-11T07:51:48.747Z,686.25
2022-08-11T07:52:52.799Z,1192.50
2022-08-11T07:53:58.781Z,1333.12
2022-08-11T07:54:51.296Z,1406.25
2022-08-11T07:55:50.839Z,1501.88
2022-08-11T07:57:07.518Z,1507.50
2022-08-11T07:58:16.164Z,1451.25
2022-08-11T07:58:53.225Z,1096.88
2022-08-11T07:59:57.578Z,753.75
2022-08-11T08:00:51.788Z,933.75
2022-08-11T08:01:48.673Z,1327.50
2022-08-11T08:02:48.643Z,1552.50
2022-08-11T08:03:54.504Z,1535.62
2022-08-11T08:04:49.640Z,1490.62
2022-08-11T08:05:48.619Z,1580.62
2022-08-11T08:06:48.604Z,1715.62
2022-08-11T08:07:48.593Z,1738.12
2022-08-11T08:08:48.591Z,1726.88
2022-08-11T08:09:48.586Z,1670.62
2022-08-11T08:10:48.566Z,1608.75
2022-08-11T08:11:48.561Z,1704.38
2022-08-11T08:12:48.551Z,1771.88
2022-08-11T08:13:48.539Z,1845.00
2022-08-11T08:14:48.564Z,1861.88
2022-08-11T08:15:48.518Z,1788.75
2022-08-11T08:16:48.516Z,1771.88
2022-08-11T08:18:09.915Z,1878.75
2022-08-11T08:18:49.499Z,1923.75
2022-08-11T08:19:48.502Z,1940.62
2022-08-11T08:20:48.476Z,1895.62
2022-08-11T08:21:48.464Z,1788.75
2022-08-11T08:22:48.834Z,1845.00
2022-08-11T08:23:53.796Z,1946.25
2022-08-11T08:24:49.455Z,2013.75
2022-08-11T08:25:48.432Z,2047.50
2022-08-11T08:26:51.871Z,2092.50
2022-08-11T08:27:48.415Z,2115.00
2022-08-11T08:28:48.406Z,2188.12
2022-08-11T08:29:48.407Z,2047.50
2022-08-11T08:30:48.384Z,1985.62
2022-08-11T08:31:48.365Z,2109.38
2022-08-11T08:32:48.371Z,2227.50
2022-08-11T08:33:48.357Z,2266.88
2022-08-11T08:34:48.370Z,2373.75
2022-08-11T08:35:54.084Z,2340.00
2022-08-11T08:36:49.345Z,2379.38
2022-08-11T08:37:48.328Z,2317.50
2022-08-11T08:38:48.370Z,2340.00
2022-08-11T08:39:48.367Z,2328.75
2022-08-11T08:40:48.441Z,2368.12
2022-08-11T08:41:48.287Z,2463.75
2022-08-11T08:42:48.518Z,2469.38
2022-08-11T08:43:49.300Z,2430.00
2022-08-11T08:44:48.251Z,2458.12
2022-08-11T08:45:48.477Z,2548.12
2022-08-11T08:46:48.241Z,2542.50
2022-08-11T08:47:52.551Z,2553.75
2022-08-11T08:48:48.225Z,2536.88
2022-08-11T08:49:48.211Z,2514.38
2022-08-11T08:50:48.222Z,2531.25
2022-08-11T08:52:01.493Z,2514.38
2022-08-11T08:52:49.582Z,2604.38
2022-08-11T08:53:52.375Z,2491.88
2022-08-11T08:54:49.213Z,2576.25
2022-08-11T08:55:48.166Z,2655.00
2022-08-11T08:56:48.153Z,2767.50
2022-08-11T08:57:48.149Z,2452.50
2022-08-11T08:58:48.136Z,2694.38
2022-08-11T08:59:49.515Z,2671.88
2022-08-11T09:00:48.135Z,2806.88
2022-08-11T09:01:48.175Z,2728.12
2022-08-11T09:02:48.326Z,2671.88
2022-08-11T09:04:06.844Z,2677.50
2022-08-11T09:04:49.109Z,2790.00
2022-08-11T09:05:48.086Z,2896.88
2022-08-11T09:06:51.621Z,2902.50
2022-08-11T09:07:48.062Z,2863.12
2022-08-11T09:08:49.650Z,2908.12
2022-08-11T09:09:48.040Z,2863.12
2022-08-11T09:10:48.053Z,2880.00
2022-08-11T09:11:48.025Z,2812.50
2022-08-11T09:12:48.291Z,2660.62
2022-08-11T09:14:05.892Z,2497.50
2022-08-11T09:14:49.115Z,2716.88
2022-08-11T09:15:48.006Z,2925.00
2022-08-11T09:16:47.991Z,3026.25
2022-08-11T09:17:47.974Z,3043.12
2022-08-11T09:18:47.974Z,3026.25
2022-08-11T09:19:56.560Z,3144.38
2022-08-11T09:20:48.971Z,3133.12
2022-08-11T09:21:49.429Z,2790.00
2022-08-11T09:22:47.938Z,2868.75
2022-08-11T09:24:07.407Z,3200.62
2022-08-11T09:24:48.921Z,3223.12
2022-08-11T09:25:47.923Z,3245.62
2022-08-11T09:26:47.909Z,3189.38
2022-08-11T09:27:50.204Z,3133.12
2022-08-11T09:28:47.947Z,3183.75
2022-08-11T09:29:47.884Z,2896.88
2022-08-11T09:30:47.888Z,3223.12
2022-08-11T09:31:47.862Z,3386.25
2022-08-11T09:32:47.859Z,3549.38
2022-08-11T09:33:47.849Z,3661.88
2022-08-11T09:34:47.847Z,3673.12
2022-08-11T09:35:47.851Z,3656.25
2022-08-11T09:36:47.826Z,3616.88
2022-08-11T09:37:55.692Z,3493.12
2022-08-11T09:38:49.713Z,3363.75
2022-08-11T09:39:47.831Z,3459.38
2022-08-11T09:40:52.824Z,3380.62
2022-08-11T09:42:01.880Z,3341.25
2022-08-11T09:42:48.777Z,3352.50
2022-08-11T09:43:47.762Z,3577.50
2022-08-11T09:44:48.575Z,3532.50
2022-08-11T09:45:47.764Z,3442.50
2022-08-11T09:46:47.742Z,3650.62
2022-08-11T09:47:47.750Z,3453.75
2022-08-11T09:48:47.724Z,3510.00
2022-08-11T09:49:47.727Z,2919.38
2022-08-11T09:50:47.734Z,3200.62
2022-08-11T09:52:01.966Z,3403.12
2022-08-11T09:53:16.866Z,4033.12
2022-08-11T09:54:03.718Z,3870.00
2022-08-11T09:54:48.801Z,2964.38
2022-08-11T09:55:47.689Z,3217.50
2022-08-11T09:56:47.666Z,3082.50
2022-08-11T09:57:47.675Z,3796.88
2022-08-11T09:58:47.647Z,3853.12
2022-08-11T09:59:47.648Z,2784.38
2022-08-11T10:00:47.713Z,3324.38
2022-08-11T10:01:47.674Z,4100.62
2022-08-11T10:02:47.619Z,3459.38
2022-08-11T10:03:47.607Z,3138.75
2022-08-11T10:04:47.603Z,3841.88
2022-08-11T10:05:47.605Z,4055.62
2022-08-11T10:06:47.588Z,3521.25
2022-08-11T10:07:47.590Z,3476.25
2022-08-11T10:08:47.575Z,4145.62
2022-08-11T10:09:47.567Z,4370.62
2022-08-11T10:10:47.573Z,4134.38
2022-08-11T10:11:57.792Z,3684.38
2022-08-11T10:12:48.545Z,4213.12
2022-08-11T10:14:33.462Z,4646.25
2022-08-11T10:14:48.530Z,4320.00
2022-08-11T10:15:59.585Z,3763.12
2022-08-11T10:16:48.520Z,3937.50
2022-08-11T10:17:47.516Z,4539.38
2022-08-11T10:18:47.503Z,4376.25
2022-08-11T10:20:04.230Z,4078.12
2022-08-11T10:20:48.502Z,3920.62
2022-08-11T10:21:47.485Z,4224.38
2022-08-11T10:22:47.476Z,4466.25
2022-08-11T10:24:01.034Z,4314.38
2022-08-11T10:24:48.463Z,4050.00
2022-08-11T10:25:47.469Z,4168.12
2022-08-11T10:26:47.455Z,4590.00
2022-08-11T10:28:30.558Z,4623.75
2022-08-11T10:29:09.903Z,4460.62
2022-08-11T10:29:49.759Z,4095.00
2022-08-11T10:30:47.441Z,4297.50
2022-08-11T10:31:57.530Z,4353.75
2022-08-11T10:32:58.681Z,4556.25
2022-08-11T10:33:59.261Z,4083.75
2022-08-11T10:34:51.173Z,3785.62
2022-08-11T10:35:47.396Z,3898.12
2022-08-11T10:36:47.398Z,4303.12
2022-08-11T10:38:08.654Z,4516.88
2022-08-11T10:38:48.371Z,4365.00
2022-08-11T10:39:47.411Z,4111.88
2022-08-11T10:40:47.354Z,3763.12
2022-08-11T10:42:06.567Z,3414.38
2022-08-11T10:42:57.794Z,3532.50
2022-08-11T10:44:02.876Z,3937.50
2022-08-11T10:44:48.322Z,3628.12
2022-08-11T10:45:47.321Z,2626.88
2022-08-11T10:46:47.322Z,2154.38
2022-08-11T10:47:49.680Z,2002.50
2022-08-11T10:48:47.305Z,1783.12
2022-08-11T10:49:47.291Z,1299.38
2022-08-11T10:50:47.281Z,967.50
2022-08-11T10:51:50.973Z,877.50
2022-08-11T10:52:47.269Z,838.12
2022-08-11T10:53:47.261Z,810.00
2022-08-11T10:54:47.260Z,787.50
2022-08-11T10:55:47.299Z,776.25
2022-08-11T10:56:47.255Z,753.75
2022-08-11T10:58:04.279Z,742.50
2022-08-11T10:58:48.231Z,748.12
2022-08-11T10:59:47.218Z,618.75
2022-08-11T11:00:47.245Z,618.75
2022-08-11T11:01:47.220Z,624.38
2022-08-11T11:03:07.108Z,613.12
2022-08-11T11:03:48.197Z,596.25
2022-08-11T11:04:50.775Z,618.75
2022-08-11T11:06:27.502Z,618.75
2022-08-11T11:06:48.178Z,607.50
2022-08-11T11:07:47.168Z,590.62
2022-08-11T11:09:47.153Z,601.88
2022-08-11T11:10:47.141Z,601.88
2022-08-11T11:11:47.157Z,596.25
2022-08-11T11:12:47.124Z,1771.88
2022-08-11T11:13:53.383Z,1805.62
2022-08-11T11:14:50.801Z,1800.00
2022-08-11T11:15:47.163Z,1794.38
2022-08-11T11:16:47.112Z,1811.25
2022-08-11T11:17:47.088Z,1800.00
2022-08-11T11:18:47.076Z,1800.00
2022-08-11T11:19:48.074Z,1783.12
2022-08-11T11:20:47.688Z,1788.75
2022-08-11T11:21:47.076Z,1805.62
2022-08-11T11:22:47.052Z,1805.62
2022-08-11T11:23:47.046Z,1738.12
2022-08-11T11:24:47.040Z,1721.25
2022-08-11T11:25:47.034Z,1715.62
2022-08-11T11:26:47.039Z,1755.00
2022-08-11T11:27:47.024Z,1738.12
2022-08-11T11:28:47.084Z,1732.50
2022-08-11T11:29:47.008Z,1732.50
2022-08-11T11:30:47.034Z,1732.50
2022-08-11T11:31:47.007Z,1738.12
2022-08-11T11:32:49.668Z,1738.12
2022-08-11T11:34:06.166Z,1738.12
2022-08-11T11:34:53.476Z,1760.62
2022-08-11T11:35:48.014Z,1732.50
2022-08-11T11:36:46.983Z,1783.12
2022-08-11T11:38:03.488Z,1816.88
2022-08-11T11:38:47.937Z,1856.25
2022-08-11T11:39:46.994Z,1935.00
2022-08-11T11:40:46.927Z,2013.75
2022-08-11T11:41:46.935Z,2143.12
2022-08-11T11:42:46.914Z,2469.38
2022-08-11T11:43:46.908Z,2986.88
2022-08-11T11:44:46.914Z,3375.00
2022-08-11T11:45:46.899Z,3363.75
2022-08-11T11:46:46.916Z,3341.25
2022-08-11T11:47:46.887Z,4044.38
2022-08-11T11:48:46.878Z,4398.75
2022-08-11T11:49:46.876Z,3853.12
2022-08-11T11:50:46.864Z,4342.50
2022-08-11T11:51:50.005Z,4843.12
2022-08-11T11:52:46.868Z,5236.88
2022-08-11T11:53:46.853Z,5450.62
2022-08-11T11:54:46.841Z,5360.62
2022-08-11T11:55:46.865Z,5259.38
2022-08-11T11:56:46.830Z,4882.50
2022-08-11T11:57:59.101Z,5253.75
2022-08-11T11:58:47.819Z,4966.88
2022-08-11T11:59:46.820Z,4505.62
2022-08-11T12:00:46.808Z,4550.62
2022-08-11T12:01:50.393Z,4680.00
2022-08-11T12:02:47.816Z,4691.25
2022-08-11T12:03:46.796Z,4882.50
2022-08-11T12:04:46.786Z,4713.75
2022-08-11T12:05:46.778Z,4640.62
2022-08-11T12:06:46.773Z,4674.38
2022-08-11T12:07:46.792Z,4674.38
2022-08-11T12:08:47.780Z,4235.62
2022-08-11T12:09:46.765Z,4770.00
2022-08-11T12:10:46.755Z,5073.75
2022-08-11T12:11:46.753Z,4888.12
2022-08-11T12:12:46.757Z,4781.25
2022-08-11T12:13:46.744Z,5023.12
2022-08-11T12:14:46.735Z,4803.75
2022-08-11T12:16:32.017Z,4809.38
2022-08-11T12:16:47.728Z,4848.75
2022-08-11T12:17:51.047Z,4696.88
2022-08-11T12:18:47.707Z,4668.75
2022-08-11T12:19:48.586Z,4753.12
2022-08-11T12:20:46.710Z,4753.12
2022-08-11T12:21:50.946Z,4640.62
2022-08-11T12:22:47.699Z,4843.12
2022-08-11T12:23:46.697Z,4944.38
2022-08-11T12:24:46.668Z,4421.25
2022-08-11T12:25:46.675Z,4320.00
2022-08-11T12:26:46.663Z,4668.75
2022-08-11T12:27:47.675Z,4792.50
2022-08-11T12:28:46.658Z,4989.38
2022-08-11T12:29:50.055Z,4933.12
2022-08-11T12:30:50.714Z,4567.50
2022-08-11T12:31:47.644Z,4578.75
2022-08-11T12:32:46.647Z,4905.00
2022-08-11T12:33:46.645Z,5028.75
2022-08-11T12:34:46.624Z,5073.75
2022-08-11T12:36:01.236Z,5445.00
2022-08-11T12:36:47.614Z,5124.38
2022-08-11T12:37:46.702Z,4280.62
2022-08-11T12:38:46.601Z,4410.00